Terminal Aerodrome Forecast
Issued by NWS Wilmington, OH

Home | Current Version | Previous Version | Text Only | Print | Product List | Glossary On
Versions: 1 2 3 4 5 6 7 8 9 10 11 12 13 14 15 16 17
000
FTUS41 KILN 200544 AAA
TAFDAY
TAF AMD
KDAY 200544Z 2006/2106 VRB03KT P6SM BKN150
     FM200900 19004KT 3SM BR BKN006
     FM201300 20005KT 5SM BR BKN012
     FM201400 22006KT P6SM SCT020
     FM201700 23006KT P6SM SCT040
     FM210100 15004KT P6SM SCT250=

USA.gov is the U.S. government's official web portal to all federal, state and local government web resources and services.